Time;durP1;ratioP1;P1;durP2;ratioP2;P2;SDS_P1;SDS_P2;PMS_P1;PMS_P2;Temp;Humidity;BMP_temperature;BMP_pressure;BME280_temperature;BME280_humidity;BME280_pressure;Samples;Min_cycle;Max_cycle;Signal;HPM_P1;HPM_P2
2023/01/26 00:00:51;;;;;;;67.10;26.30;;;-1.10;99.90;;;;;;5035305;28;20519;-48
2023/01/26 00:03:17;;;;;;;65.77;26.77;;;-1.20;99.90;;;;;;5034540;28;20432;-48
2023/01/26 00:05:43;;;;;;;60.83;26.60;;;-1.20;99.90;;;;;;5034613;28;20406;-48
2023/01/26 00:08:08;;;;;;;60.40;25.33;;;-1.20;99.90;;;;;;5034619;28;20585;-48
2023/01/26 00:10:36;;;;;;;57.47;24.40;;;-1.20;99.90;;;;;;5034781;28;20419;-49
2023/01/26 00:13:02;;;;;;;64.47;26.93;;;-1.20;99.90;;;;;;5034564;28;20201;-49
2023/01/26 00:15:30;;;;;;;70.63;28.80;;;-1.20;99.90;;;;;;5034293;28;20425;-47
2023/01/26 00:17:56;;;;;;;72.70;30.53;;;-1.20;99.90;;;;;;5034351;28;20466;-48
2023/01/26 00:20:21;;;;;;;68.03;29.83;;;-1.10;99.90;;;;;;5034607;28;20467;-47
2023/01/26 00:22:47;;;;;;;63.43;27.03;;;-1.10;99.90;;;;;;4997011;28;1077653;-47
2023/01/26 00:25:12;;;;;;;68.83;29.23;;;-1.10;99.90;;;;;;5035682;28;20172;-48
2023/01/26 00:27:38;;;;;;;72.67;30.47;;;-1.10;99.90;;;;;;5035550;28;20186;-49
2023/01/26 00:30:04;;;;;;;70.10;28.73;;;-1.20;99.90;;;;;;5035775;28;20620;-49
2023/01/26 00:32:29;;;;;;;71.60;27.63;;;-1.20;99.90;;;;;;5017582;28;20695;-49
2023/01/26 00:34:55;;;;;;;60.33;27.37;;;-1.10;99.90;;;;;;5035711;28;20432;-49
2023/01/26 00:37:20;;;;;;;69.57;29.10;;;-1.10;99.90;;;;;;5035814;28;20195;-48
2023/01/26 00:39:46;;;;;;;69.70;27.80;;;-1.10;99.90;;;;;;5035061;28;20264;-47
2023/01/26 00:42:14;;;;;;;65.57;28.53;;;-1.10;99.90;;;;;;5035070;28;20215;-50
2023/01/26 00:44:41;;;;;;;61.70;26.80;;;-1.10;99.90;;;;;;5017183;28;20592;-49
2023/01/26 00:47:09;;;;;;;67.13;28.63;;;-1.00;99.90;;;;;;5035020;28;20396;-49
2023/01/26 00:49:35;;;;;;;77.10;29.87;;;-1.00;99.90;;;;;;5034913;28;20456;-49
2023/01/26 00:52:01;;;;;;;64.27;26.37;;;-1.00;99.90;;;;;;5034744;28;20860;-50
2023/01/26 00:54:27;;;;;;;65.50;26.23;;;-1.00;99.90;;;;;;5034629;28;20183;-48
2023/01/26 00:56:53;;;;;;;66.53;26.43;;;-1.00;99.90;;;;;;5034918;28;20609;-48
2023/01/26 00:59:18;;;;;;;65.17;28.50;;;-1.00;99.90;;;;;;5048155;22;20487;-50
2023/01/26 01:01:44;;;;;;;64.00;26.90;;;-1.00;99.90;;;;;;5034400;28;20652;-50
2023/01/26 01:04:10;;;;;;;70.23;29.13;;;-1.00;99.90;;;;;;5034765;28;20213;-49
2023/01/26 01:06:35;;;;;;;69.37;27.57;;;-1.00;99.90;;;;;;5034830;28;20188;-49
2023/01/26 01:09:01;;;;;;;69.00;28.10;;;-1.00;99.90;;;;;;5034641;28;20169;-51
2023/01/26 01:11:27;;;;;;;67.83;27.17;;;-1.00;99.90;;;;;;5034420;28;20181;-45
2023/01/26 01:13:52;;;;;;;67.93;26.40;;;-1.00;99.90;;;;;;5016576;28;20565;-46
2023/01/26 01:16:18;;;;;;;69.17;27.33;;;-1.00;99.90;;;;;;5034200;28;20222;-45
2023/01/26 01:18:44;;;;;;;64.30;26.90;;;-1.00;99.90;;;;;;5034537;28;20185;-43
2023/01/26 01:21:14;;;;;;;66.03;26.10;;;-1.00;99.90;;;;;;5034215;28;20207;-43
2023/01/26 01:23:41;;;;;;;58.90;24.20;;;-1.00;99.90;;;;;;5034096;28;20249;-44
2023/01/26 01:26:08;;;;;;;61.30;25.67;;;-1.00;99.90;;;;;;5033548;28;20413;-45
2023/01/26 01:28:35;;;;;;;66.73;26.30;;;-1.00;99.90;;;;;;5033817;28;20421;-44
2023/01/26 01:31:04;;;;;;;63.03;26.27;;;-1.00;99.90;;;;;;5034167;28;20453;-43
2023/01/26 01:33:30;;;;;;;65.73;26.87;;;-1.00;99.90;;;;;;5016347;28;20465;-42
2023/01/26 01:36:00;;;;;;;71.07;25.73;;;-1.00;99.90;;;;;;5034337;28;20983;-44
2023/01/26 01:38:26;;;;;;;59.73;24.97;;;-1.00;99.90;;;;;;5016176;28;20277;-44
2023/01/26 01:40:52;;;;;;;67.47;25.37;;;-1.00;99.90;;;;;;5033787;28;20547;-45
2023/01/26 01:43:19;;;;;;;57.17;24.30;;;-1.00;99.90;;;;;;5033757;28;20508;-43
2023/01/26 01:45:46;;;;;;;60.20;25.07;;;-1.00;99.90;;;;;;5033763;28;20840;-43
2023/01/26 01:48:50;;;;;;;65.67;23.67;;;-1.00;99.90;;;;;;5033438;28;20413;-45
2023/01/26 01:51:28;;;;;;;52.80;22.10;;;-1.00;99.90;;;;;;5033731;28;20398;-44
2023/01/26 01:53:56;;;;;;;64.60;24.30;;;-1.00;99.90;;;;;;5015872;28;20421;-45
2023/01/26 01:56:24;;;;;;;53.47;21.80;;;-1.00;99.90;;;;;;5035188;28;20477;-43
2023/01/26 01:58:53;;;;;;;58.23;22.27;;;-1.00;99.90;;;;;;5034476;28;20468;-46
2023/01/26 02:01:19;;;;;;;64.13;21.80;;;-1.00;99.90;;;;;;5033454;28;20562;-44
2023/01/26 02:03:47;;;;;;;53.67;22.80;;;-1.00;99.90;;;;;;5033426;28;20456;-45
2023/01/26 02:06:18;;;;;;;54.33;22.27;;;-1.00;99.90;;;;;;5015799;28;20184;-43
2023/01/26 02:08:51;;;;;;;55.00;20.90;;;-1.00;99.90;;;;;;5033496;28;20391;-43
2023/01/26 02:11:25;;;;;;;54.00;20.50;;;-0.90;99.90;;;;;;5034017;28;20402;-44
2023/01/26 02:13:52;;;;;;;54.27;19.67;;;-1.00;99.90;;;;;;5033883;28;20440;-43
2023/01/26 02:16:18;;;;;;;51.23;20.67;;;-0.90;99.90;;;;;;5016370;28;20776;-44
2023/01/26 02:18:44;;;;;;;54.87;20.23;;;-1.00;99.90;;;;;;5033181;28;20423;-45
2023/01/26 02:21:14;;;;;;;53.17;20.63;;;-1.00;99.90;;;;;;5033254;28;20468;-44
2023/01/26 02:23:39;;;;;;;50.23;20.03;;;-0.90;99.90;;;;;;5033205;28;20438;-45
2023/01/26 02:26:06;;;;;;;53.00;19.93;;;-1.00;99.90;;;;;;5033199;28;20408;-45
2023/01/26 02:28:32;;;;;;;51.33;18.67;;;-1.00;99.90;;;;;;5033177;28;20187;-44
2023/01/26 02:30:58;;;;;;;53.97;19.90;;;-0.90;99.90;;;;;;5033197;28;20923;-45
2023/01/26 02:33:27;;;;;;;57.17;20.57;;;-1.00;99.90;;;;;;5033129;28;20283;-44
2023/01/26 02:35:53;;;;;;;50.03;18.47;;;-0.90;99.90;;;;;;5033638;28;20410;-44
2023/01/26 02:38:21;;;;;;;49.13;19.70;;;-0.90;99.90;;;;;;5033327;28;20425;-45
2023/01/26 02:40:54;;;;;;;46.90;18.90;;;-0.90;99.90;;;;;;5019779;28;20212;-43
2023/01/26 02:43:22;;;;;;;49.50;19.60;;;-0.90;99.90;;;;;;5037300;28;20475;-43
2023/01/26 02:45:47;;;;;;;52.80;18.37;;;-0.90;99.90;;;;;;5037233;28;20500;-44
2023/01/26 02:48:13;;;;;;;48.23;18.17;;;-0.90;99.90;;;;;;5037126;28;20451;-46
2023/01/26 02:50:38;;;;;;;45.27;19.70;;;-0.90;99.90;;;;;;5037083;28;20193;-44
2023/01/26 02:53:04;;;;;;;53.20;19.47;;;-0.90;99.90;;;;;;5019324;28;20232;-45
2023/01/26 02:55:30;;;;;;;54.77;19.70;;;-0.90;99.90;;;;;;5037363;28;20187;-44
2023/01/26 02:57:58;;;;;;;52.20;20.30;;;-0.90;99.90;;;;;;5036889;28;20181;-44
2023/01/26 03:00:30;;;;;;;48.17;17.87;;;-0.90;99.90;;;;;;5036752;28;20431;-44
2023/01/26 03:02:58;;;;;;;46.17;19.47;;;-0.90;99.90;;;;;;5036948;28;20865;-45
2023/01/26 03:05:25;;;;;;;56.27;21.03;;;-0.90;99.90;;;;;;5036644;28;20933;-45
2023/01/26 03:07:51;;;;;;;51.77;18.53;;;-0.90;99.90;;;;;;5037054;28;20414;-42
2023/01/26 03:10:17;;;;;;;56.83;20.40;;;-0.90;99.90;;;;;;5037173;28;20807;-44
2023/01/26 03:12:43;;;;;;;50.10;19.20;;;-0.90;99.90;;;;;;5036860;28;20205;-44
2023/01/26 03:29:00;;;;;;;46.80;19.10;;;-0.80;99.90;;;;;;5036979;28;20753;-45
2023/01/26 03:31:26;;;;;;;46.20;19.13;;;-0.80;99.90;;;;;;5036461;28;20425;-45
2023/01/26 03:33:51;;;;;;;54.43;20.57;;;-0.90;99.90;;;;;;5037015;28;20216;-42
2023/01/26 03:36:17;;;;;;;56.70;21.27;;;-0.90;99.90;;;;;;5037427;28;20178;-43
2023/01/26 03:38:42;;;;;;;53.27;19.80;;;-0.90;99.90;;;;;;5018873;28;20273;-45
2023/01/26 03:57:32;;;;;;;53.30;20.67;;;-0.80;99.90;;;;;;5036417;28;20392;-43
2023/01/26 03:59:58;;;;;;;59.77;21.83;;;-0.80;99.90;;;;;;5035735;28;20449;-43
2023/01/26 04:10:36;;;;;;;71.67;24.00;;;-0.80;99.90;;;;;;5036083;28;20390;-48
2023/01/26 04:21:33;;;;;;;67.27;22.70;;;-0.80;99.90;;;;;;5035489;28;20443;-49
2023/01/26 04:24:00;;;;;;;64.80;23.43;;;-0.80;99.90;;;;;;5035452;28;20819;-50
2023/01/26 04:26:38;;;;;;;66.33;24.33;;;-0.80;99.90;;;;;;5035786;28;20421;-49
2023/01/26 04:29:09;;;;;;;72.60;24.07;;;-0.80;99.90;;;;;;5003142;28;20408;-51
2023/01/26 04:31:35;;;;;;;58.27;22.43;;;-0.90;99.90;;;;;;5017443;28;20441;-50
2023/01/26 04:34:02;;;;;;;70.87;22.70;;;-0.80;99.90;;;;;;5035394;28;20418;-50
2023/01/26 04:36:28;;;;;;;66.87;22.47;;;-0.80;99.90;;;;;;5035451;28;20192;-50
2023/01/26 04:38:55;;;;;;;63.23;21.77;;;-0.80;99.90;;;;;;5017642;28;20425;-50
2023/01/26 04:41:22;;;;;;;58.43;21.80;;;-0.80;99.90;;;;;;5034881;28;20507;-49
2023/01/26 04:43:48;;;;;;;61.60;22.83;;;-0.80;99.90;;;;;;5001089;28;20503;-50
2023/01/26 04:46:14;;;;;;;70.63;23.83;;;-0.80;99.90;;;;;;5017187;28;20413;-50
2023/01/26 04:48:40;;;;;;;70.43;23.23;;;-0.80;99.90;;;;;;5035314;28;20467;-50
2023/01/26 04:51:10;;;;;;;65.07;22.00;;;-0.80;99.90;;;;;;5035373;28;20184;-50
2023/01/26 04:53:36;;;;;;;64.57;22.17;;;-0.80;99.90;;;;;;5017078;28;20611;-49
2023/01/26 04:56:02;;;;;;;66.87;22.13;;;-0.80;99.90;;;;;;5034886;28;20507;-49
2023/01/26 04:58:27;;;;;;;64.77;23.23;;;-0.80;99.90;;;;;;5034959;28;20535;-45
2023/01/26 05:00:55;;;;;;;64.83;23.03;;;-0.80;99.90;;;;;;5034033;28;20727;-44
2023/01/26 05:03:22;;;;;;;69.93;24.50;;;-0.80;99.90;;;;;;5034178;28;20662;-44
2023/01/26 05:05:49;;;;;;;70.17;24.30;;;-0.80;99.90;;;;;;5034997;28;20415;-44
2023/01/26 05:08:15;;;;;;;72.27;24.53;;;-0.80;99.90;;;;;;5034595;28;20469;-44
2023/01/26 05:10:41;;;;;;;71.33;23.73;;;-0.80;99.90;;;;;;5034699;28;20415;-46
2023/01/26 05:13:07;;;;;;;68.83;23.17;;;-0.80;99.90;;;;;;5034526;28;20507;-44
2023/01/26 05:15:34;;;;;;;71.37;23.90;;;-0.80;99.90;;;;;;5034306;28;21134;-45
2023/01/26 05:18:00;;;;;;;74.43;24.03;;;-0.80;99.90;;;;;;5034491;28;20471;-45
2023/01/26 05:20:25;;;;;;;73.30;27.17;;;-0.80;99.90;;;;;;5034302;28;20417;-45
2023/01/26 05:22:52;;;;;;;88.07;29.37;;;-0.80;99.90;;;;;;5033995;28;20250;-44
2023/01/26 05:25:17;;;;;;;78.53;25.43;;;-0.80;99.90;;;;;;5034331;28;20243;-45
2023/01/26 05:27:43;;;;;;;80.30;26.47;;;-0.80;99.90;;;;;;5034414;28;20508;-45
2023/01/26 05:30:10;;;;;;;71.43;24.23;;;-0.70;99.90;;;;;;5034447;28;20181;-44
2023/01/26 05:32:36;;;;;;;63.73;22.23;;;-0.70;99.90;;;;;;5034362;28;20209;-46
2023/01/26 05:35:03;;;;;;;76.83;23.43;;;-0.70;99.90;;;;;;5035205;28;20416;-45
2023/01/26 05:37:28;;;;;;;73.93;25.10;;;-0.70;99.90;;;;;;5034994;28;20420;-46
2023/01/26 05:39:54;;;;;;;73.77;23.07;;;-0.70;99.90;;;;;;5034381;28;20427;-44
2023/01/26 05:42:21;;;;;;;75.07;24.80;;;-0.70;99.90;;;;;;5034274;28;20734;-45
2023/01/26 05:44:46;;;;;;;77.83;27.87;;;-0.70;99.90;;;;;;5034547;28;20508;-46
2023/01/26 05:47:12;;;;;;;74.90;25.43;;;-0.70;99.90;;;;;;5034233;28;20413;-45
2023/01/26 05:49:41;;;;;;;77.87;26.97;;;-0.70;99.90;;;;;;5034494;28;20638;-44
2023/01/26 05:52:09;;;;;;;77.33;26.17;;;-0.70;99.90;;;;;;5015969;28;20206;-45
2023/01/26 05:54:35;;;;;;;80.93;25.77;;;-0.70;99.90;;;;;;5016333;28;20420;-45
2023/01/26 05:57:01;;;;;;;83.50;27.50;;;-0.70;99.90;;;;;;5034141;28;20517;-44
2023/01/26 05:59:27;;;;;;;70.73;25.40;;;-0.70;99.90;;;;;;5033454;28;20592;-44
2023/01/26 06:01:54;;;;;;;82.47;26.70;;;-0.70;99.90;;;;;;5034506;28;20212;-43
2023/01/26 06:04:19;;;;;;;72.70;25.10;;;-0.70;99.90;;;;;;5035156;28;20441;-44
2023/01/26 06:06:45;;;;;;;72.53;25.23;;;-0.70;99.90;;;;;;5034134;28;20939;-44
2023/01/26 06:09:21;;;;;;;69.63;24.63;;;-0.70;99.90;;;;;;5034342;28;20167;-44
2023/01/26 06:11:47;;;;;;;67.87;24.73;;;-0.70;99.90;;;;;;5034390;28;20184;-44
2023/01/26 06:14:13;;;;;;;77.60;26.60;;;-0.70;99.90;;;;;;5034291;28;20412;-45
2023/01/26 06:16:39;;;;;;;68.23;25.07;;;-0.70;99.90;;;;;;5033819;28;20187;-46
2023/01/26 06:19:05;;;;;;;66.30;25.73;;;-0.60;99.90;;;;;;5033398;28;20179;-45
2023/01/26 06:21:31;;;;;;;66.80;23.53;;;-0.70;99.90;;;;;;5033829;28;20566;-46
2023/01/26 06:23:57;;;;;;;70.00;24.23;;;-0.60;99.90;;;;;;5034020;28;20464;-44
2023/01/26 06:26:23;;;;;;;67.07;24.63;;;-0.70;99.90;;;;;;5033743;28;20419;-44
2023/01/26 06:28:49;;;;;;;73.17;24.77;;;-0.60;99.90;;;;;;5034179;28;20407;-44
2023/01/26 06:31:15;;;;;;;73.97;25.50;;;-0.60;99.90;;;;;;5033362;28;20233;-44
2023/01/26 06:33:41;;;;;;;74.23;26.00;;;-0.60;99.90;;;;;;5033319;28;20485;-44
2023/01/26 06:36:09;;;;;;;70.03;25.30;;;-0.60;99.90;;;;;;5033784;28;20192;-45
2023/01/26 06:38:36;;;;;;;60.03;23.03;;;-0.60;99.90;;;;;;5033594;28;20419;-46
2023/01/26 06:41:03;;;;;;;66.73;23.30;;;-0.60;99.90;;;;;;5033093;28;20479;-45
2023/01/26 06:43:29;;;;;;;65.20;22.63;;;-0.60;99.90;;;;;;5033175;28;20465;-43
2023/01/26 06:45:56;;;;;;;60.73;22.57;;;-0.60;99.90;;;;;;5033389;28;20802;-45
2023/01/26 06:48:24;;;;;;;62.93;22.80;;;-0.60;99.90;;;;;;5033382;28;20781;-45
2023/01/26 06:50:51;;;;;;;62.63;23.10;;;-0.60;99.90;;;;;;5033539;28;20421;-46
2023/01/26 06:53:33;;;;;;;71.20;24.20;;;-0.60;99.90;;;;;;5032928;28;20449;-44
2023/01/26 06:55:58;;;;;;;59.13;22.63;;;-0.50;99.90;;;;;;5033188;28;20424;-45
2023/01/26 06:58:24;;;;;;;61.30;22.90;;;-0.50;99.90;;;;;;5033488;28;20412;-45
2023/01/26 07:00:51;;;;;;;63.50;23.17;;;-0.60;99.90;;;;;;5033115;28;20215;-44
2023/01/26 07:03:16;;;;;;;57.43;22.20;;;-0.60;99.90;;;;;;5015727;28;20280;-45
2023/01/26 07:05:42;;;;;;;58.03;22.47;;;-0.50;99.90;;;;;;5033184;28;20832;-45
2023/01/26 07:08:07;;;;;;;59.80;21.83;;;-0.60;99.90;;;;;;5033174;28;20643;-44
2023/01/26 07:10:36;;;;;;;66.20;25.80;;;-0.50;99.90;;;;;;5033201;28;20179;-47
2023/01/26 07:13:05;;;;;;;54.47;22.17;;;-0.50;99.90;;;;;;5032970;28;20206;-44
2023/01/26 07:15:31;;;;;;;58.30;22.37;;;-0.50;99.90;;;;;;5033676;28;20764;-44
2023/01/26 07:17:58;;;;;;;56.77;21.50;;;-0.50;99.90;;;;;;5032934;28;20424;-45
2023/01/26 07:20:23;;;;;;;64.80;23.63;;;-0.50;99.90;;;;;;5033412;28;20184;-47
2023/01/26 07:22:50;;;;;;;61.83;22.80;;;-0.50;99.90;;;;;;5015258;28;20964;-45
2023/01/26 07:25:16;;;;;;;66.40;23.87;;;-0.40;99.90;;;;;;5035064;28;20174;-47
2023/01/26 07:27:42;;;;;;;65.63;22.73;;;-0.40;99.90;;;;;;5019132;28;20463;-45
2023/01/26 07:30:09;;;;;;;56.67;22.27;;;-0.50;99.90;;;;;;5037171;28;20409;-44
2023/01/26 07:32:34;;;;;;;62.90;22.57;;;-0.40;99.90;;;;;;5036555;28;20435;-45
2023/01/26 07:35:00;;;;;;;60.23;21.77;;;-0.40;99.90;;;;;;5036711;28;20428;-44
2023/01/26 07:37:29;;;;;;;60.20;23.10;;;-0.40;99.90;;;;;;5037604;28;20269;-46
2023/01/26 07:39:55;;;;;;;67.60;23.10;;;-0.40;99.90;;;;;;5019253;28;20179;-45
2023/01/26 07:42:21;;;;;;;61.27;21.57;;;-0.40;99.90;;;;;;5037152;28;20572;-44
2023/01/26 07:44:46;;;;;;;65.43;22.33;;;-0.40;99.90;;;;;;5036515;28;20201;-45
2023/01/26 07:47:13;;;;;;;74.83;25.10;;;-0.40;99.90;;;;;;5036261;28;20181;-46
2023/01/26 07:49:39;;;;;;;63.70;24.73;;;-0.40;99.90;;;;;;5036447;28;20698;-44
2023/01/26 07:52:05;;;;;;;59.40;23.47;;;-0.40;99.90;;;;;;5036236;28;20443;-44
2023/01/26 07:54:30;;;;;;;57.57;22.90;;;-0.30;99.90;;;;;;5036281;28;20182;-45
2023/01/26 07:56:56;;;;;;;68.97;24.40;;;-0.30;99.90;;;;;;5036391;28;20208;-45
2023/01/26 07:59:22;;;;;;;59.83;21.67;;;-0.30;99.90;;;;;;5036086;28;20676;-45
2023/01/26 08:01:49;;;;;;;61.27;22.70;;;-0.30;99.90;;;;;;5036174;28;20601;-45
2023/01/26 08:04:14;;;;;;;55.47;22.87;;;-0.30;99.90;;;;;;5036338;28;20451;-45
2023/01/26 08:06:40;;;;;;;68.27;25.20;;;-0.30;99.90;;;;;;5035886;28;20413;-44
2023/01/26 08:09:06;;;;;;;65.60;24.47;;;-0.30;99.90;;;;;;5018589;28;20185;-45
2023/01/26 08:11:31;;;;;;;63.93;24.73;;;-0.30;99.90;;;;;;5018876;28;20188;-45
2023/01/26 08:13:57;;;;;;;67.90;24.83;;;-0.30;99.90;;;;;;5020459;28;20184;-45
2023/01/26 08:16:23;;;;;;;68.43;25.30;;;-0.30;99.90;;;;;;5036415;28;20188;-44
2023/01/26 08:18:48;;;;;;;67.03;24.13;;;-0.30;99.90;;;;;;5036444;28;20183;-43
2023/01/26 08:21:16;;;;;;;58.03;22.80;;;-0.20;99.90;;;;;;5035530;28;20292;-45
2023/01/26 08:23:42;;;;;;;67.27;25.37;;;-0.20;99.90;;;;;;5035884;28;20227;-45
2023/01/26 08:26:11;;;;;;;65.80;24.10;;;-0.20;99.90;;;;;;5036031;28;20731;-46
2023/01/26 08:28:37;;;;;;;68.50;25.20;;;-0.20;99.90;;;;;;5035829;28;20222;-44
2023/01/26 08:31:04;;;;;;;62.20;23.23;;;-0.20;99.90;;;;;;5035288;28;20464;-44
2023/01/26 08:33:31;;;;;;;56.97;22.93;;;-0.20;99.90;;;;;;5017635;28;20808;-44
2023/01/26 08:36:05;;;;;;;56.53;22.70;;;-0.20;99.90;;;;;;5016632;28;20473;-45
2023/01/26 08:38:32;;;;;;;61.23;23.87;;;-0.20;99.90;;;;;;5035015;28;20183;-46
2023/01/26 08:40:59;;;;;;;61.17;23.40;;;-0.20;99.90;;;;;;5035297;28;20464;-45
2023/01/26 08:43:25;;;;;;;62.63;22.80;;;-0.20;99.90;;;;;;5035138;28;20431;-44
2023/01/26 08:45:51;;;;;;;53.60;20.77;;;-0.10;99.90;;;;;;5035431;28;20422;-49
2023/01/26 08:48:17;;;;;;;60.37;23.40;;;-0.10;99.90;;;;;;5035051;28;20746;-51
2023/01/26 08:50:43;;;;;;;65.07;24.07;;;-0.10;99.90;;;;;;5017132;28;20651;-51
2023/01/26 08:53:08;;;;;;;63.93;24.07;;;-0.10;99.90;;;;;;5034789;28;20434;-50
2023/01/26 08:55:34;;;;;;;60.73;24.13;;;0.00;99.90;;;;;;5035094;28;20183;-49
2023/01/26 08:58:00;;;;;;;65.37;24.43;;;-0.10;99.90;;;;;;5017208;28;20210;-50
2023/01/26 09:00:27;;;;;;;57.10;22.30;;;0.00;99.90;;;;;;5034770;28;20192;-50
2023/01/26 09:03:03;;;;;;;61.80;24.00;;;0.00;99.90;;;;;;5034620;28;20674;-50
2023/01/26 09:05:34;;;;;;;61.50;24.07;;;0.00;99.90;;;;;;5035184;28;20875;-50
2023/01/26 09:08:00;;;;;;;66.87;24.37;;;0.00;99.90;;;;;;5035333;28;20427;-49
2023/01/26 09:10:26;;;;;;;63.87;23.67;;;0.10;99.90;;;;;;5017367;28;20416;-50
2023/01/26 09:12:51;;;;;;;64.50;23.23;;;0.10;99.90;;;;;;5034584;28;20197;-49
2023/01/26 09:15:17;;;;;;;71.10;23.07;;;0.10;99.90;;;;;;5034622;28;20524;-50
2023/01/26 09:17:43;;;;;;;66.20;23.63;;;0.10;99.90;;;;;;5034447;28;20187;-50
2023/01/26 09:20:10;;;;;;;55.80;21.10;;;0.10;99.90;;;;;;5034553;28;20254;-51
2023/01/26 09:22:36;;;;;;;63.57;24.53;;;0.10;99.90;;;;;;5016885;28;20584;-48
2023/01/26 09:25:02;;;;;;;57.67;22.37;;;0.10;99.90;;;;;;5016679;28;20990;-49
2023/01/26 09:27:28;;;;;;;68.30;24.33;;;0.20;99.90;;;;;;5034259;28;20270;-44
2023/01/26 09:29:54;;;;;;;71.17;25.23;;;0.20;99.90;;;;;;5034248;28;20185;-43
2023/01/26 09:32:20;;;;;;;72.67;24.87;;;0.20;99.90;;;;;;5016543;28;20307;-45
2023/01/26 09:34:46;;;;;;;61.20;23.63;;;0.20;99.90;;;;;;5034280;28;20503;-44
2023/01/26 09:37:11;;;;;;;70.93;25.30;;;0.20;99.90;;;;;;5034287;28;20193;-44
2023/01/26 09:39:37;;;;;;;66.30;24.50;;;0.20;99.90;;;;;;5034206;28;20229;-43
2023/01/26 09:42:33;;;;;;;69.37;25.60;;;0.20;99.90;;;;;;5034504;28;20223;-43
2023/01/26 09:44:59;;;;;;;77.27;24.97;;;0.20;99.90;;;;;;5034488;28;20617;-43
2023/01/26 09:47:53;;;;;;;69.13;24.53;;;0.30;99.90;;;;;;5033616;28;20418;-42
2023/01/26 09:50:26;;;;;;;70.53;25.13;;;0.30;99.90;;;;;;5016943;28;20171;-44
2023/01/26 09:53:01;;;;;;;69.47;23.53;;;0.30;99.90;;;;;;5033984;28;20936;-43
2023/01/26 09:55:29;;;;;;;67.63;23.03;;;0.30;99.90;;;;;;5034309;28;20166;-43
2023/01/26 09:58:17;;;;;;;63.83;24.80;;;0.30;99.90;;;;;;5034262;28;20414;-44
2023/01/26 10:00:49;;;;;;;67.63;24.83;;;0.30;99.90;;;;;;5015752;28;20922;-44
2023/01/26 10:03:26;;;;;;;72.50;25.17;;;0.40;99.90;;;;;;5033944;28;20437;-44
2023/01/26 10:06:13;;;;;;;67.20;24.37;;;0.40;99.90;;;;;;5033820;28;20385;-48
2023/01/26 10:08:42;;;;;;;66.70;24.37;;;0.40;99.90;;;;;;5016228;28;20422;-49
2023/01/26 10:11:25;;;;;;;57.80;21.50;;;0.40;99.90;;;;;;5033695;28;20922;-48
2023/01/26 10:13:59;;;;;;;62.57;21.90;;;0.50;99.90;;;;;;5033872;28;20528;-49
2023/01/26 10:16:25;;;;;;;72.87;24.07;;;0.50;99.90;;;;;;5033497;28;20847;-48
2023/01/26 10:18:58;;;;;;;63.43;23.73;;;0.50;99.90;;;;;;5033899;28;20422;-49
2023/01/26 10:21:29;;;;;;;62.07;22.37;;;0.50;99.90;;;;;;5034205;28;20221;-49
2023/01/26 10:23:58;;;;;;;65.37;22.40;;;0.50;99.90;;;;;;5033805;28;20428;-48
2023/01/26 10:26:28;;;;;;;68.23;23.17;;;0.60;99.90;;;;;;5033848;28;20418;-49
2023/01/26 10:28:54;;;;;;;53.67;22.00;;;0.60;99.90;;;;;;5034902;28;20489;-49
2023/01/26 10:31:31;;;;;;;62.33;22.17;;;0.70;99.90;;;;;;5035070;28;20219;-49
2023/01/26 10:34:19;;;;;;;60.53;22.17;;;0.70;99.90;;;;;;5016063;28;20270;-48
2023/01/26 10:36:46;;;;;;;58.37;22.30;;;0.80;99.90;;;;;;5033767;28;20419;-49
2023/01/26 10:39:16;;;;;;;62.43;23.33;;;0.80;99.90;;;;;;5015868;28;20426;-49
2023/01/26 10:42:02;;;;;;;61.33;22.40;;;0.80;99.90;;;;;;5033156;28;20842;-50
2023/01/26 10:44:37;;;;;;;54.93;20.83;;;0.80;99.90;;;;;;5033593;28;20450;-48
2023/01/26 10:47:14;;;;;;;60.67;21.00;;;0.80;99.90;;;;;;5033419;28;20445;-49
2023/01/26 10:49:40;;;;;;;60.47;22.07;;;0.80;99.90;;;;;;5033428;28;20404;-49
2023/01/26 10:52:24;;;;;;;55.90;20.93;;;0.90;99.90;;;;;;5033274;28;20204;-45
2023/01/26 10:55:11;;;;;;;52.63;20.07;;;0.80;99.90;;;;;;5033107;28;20162;-45
2023/01/26 10:57:38;;;;;;;54.40;21.60;;;0.90;99.90;;;;;;5032986;28;20644;-44
2023/01/26 11:00:21;;;;;;;52.63;20.17;;;0.90;99.90;;;;;;5034057;28;20687;-43
2023/01/26 11:02:52;;;;;;;62.67;20.63;;;0.90;99.90;;;;;;5036874;28;20250;-44
2023/01/26 11:05:23;;;;;;;42.97;18.07;;;0.90;99.90;;;;;;5019142;28;20262;-44
2023/01/26 11:07:53;;;;;;;51.13;19.67;;;1.00;99.90;;;;;;5019257;28;20177;-42
2023/01/26 11:10:38;;;;;;;45.30;18.50;;;1.00;99.90;;;;;;5037165;28;20572;-46
2023/01/26 11:13:11;;;;;;;46.70;19.73;;;1.00;99.90;;;;;;5036758;28;20215;-44
2023/01/26 11:15:43;;;;;;;44.70;17.87;;;1.00;99.90;;;;;;5036671;28;20681;-44
2023/01/26 11:18:26;;;;;;;47.67;19.27;;;1.00;99.90;;;;;;5036911;28;20164;-43
2023/01/26 11:21:10;;;;;;;49.90;20.37;;;1.00;99.90;;;;;;5037621;28;20266;-44
2023/01/26 11:24:11;;;;;;;48.33;19.10;;;1.00;99.90;;;;;;5036429;28;20235;-43
2023/01/26 11:27:02;;;;;;;44.40;19.53;;;1.00;99.90;;;;;;5037062;28;20635;-44
2023/01/26 11:30:00;;;;;;;43.00;20.57;;;1.00;99.90;;;;;;5037259;28;20248;-43
2023/01/26 11:33:01;;;;;;;40.40;17.73;;;0.90;99.90;;;;;;5037533;28;20207;-45
2023/01/26 11:35:30;;;;;;;36.40;17.80;;;1.00;99.90;;;;;;4956673;29;20443;-44
2023/01/26 11:38:11;;;;;;;44.40;18.77;;;1.00;99.90;;;;;;5022449;28;20536;-48
2023/01/26 11:40:41;;;;;;;33.83;15.40;;;1.00;99.90;;;;;;5036645;28;20256;-48
2023/01/26 11:43:25;;;;;;;39.00;18.77;;;1.00;99.90;;;;;;5018751;28;20207;-50
2023/01/26 11:45:56;;;;;;;33.33;14.53;;;1.10;99.90;;;;;;5019112;28;20187;-50
2023/01/26 11:48:50;;;;;;;34.23;15.17;;;1.10;99.90;;;;;;5036346;28;20185;-50
2023/01/26 11:51:28;;;;;;;31.07;14.60;;;1.10;99.90;;;;;;5036370;28;20177;-49
2023/01/26 11:54:11;;;;;;;27.33;12.77;;;1.10;99.90;;;;;;5036134;28;20196;-49
2023/01/26 11:56:52;;;;;;;29.33;12.67;;;1.10;99.90;;;;;;5036331;28;20176;-50
2023/01/26 11:59:37;;;;;;;25.70;12.07;;;1.10;99.90;;;;;;5035966;28;20644;-49
2023/01/26 12:02:44;;;;;;;24.73;11.87;;;1.20;99.90;;;;;;5035820;28;20211;-48
2023/01/26 12:05:19;;;;;;;22.50;11.40;;;1.10;99.90;;;;;;5031777;28;20196;-49
2023/01/26 12:07:54;;;;;;;22.63;11.13;;;1.20;99.90;;;;;;5036002;28;20164;-50
2023/01/26 12:10:26;;;;;;;26.50;12.30;;;1.20;99.90;;;;;;5035778;28;20210;-49
2023/01/26 12:13:06;;;;;;;22.50;11.97;;;1.30;99.90;;;;;;5035947;28;20235;-49
2023/01/26 12:15:35;;;;;;;23.40;10.67;;;1.30;99.90;;;;;;5035782;28;20165;-48
2023/01/26 12:18:09;;;;;;;24.07;11.73;;;1.30;99.90;;;;;;5035635;28;20464;-49
2023/01/26 12:20:46;;;;;;;25.43;12.30;;;1.30;99.90;;;;;;5036091;28;20163;-50
2023/01/26 12:23:20;;;;;;;21.40;10.17;;;1.40;99.90;;;;;;5035402;28;20206;-50
2023/01/26 12:25:51;;;;;;;22.07;10.87;;;1.40;99.90;;;;;;5035801;28;20161;-48
2023/01/26 12:28:22;;;;;;;19.10;9.37;;;1.30;99.90;;;;;;5035808;28;20164;-49
2023/01/26 12:31:15;;;;;;;19.40;10.17;;;1.30;99.90;;;;;;5036216;28;20156;-50
2023/01/26 12:33:41;;;;;;;17.13;9.87;;;1.30;99.90;;;;;;5017612;28;20309;-50
2023/01/26 12:36:18;;;;;;;20.27;10.23;;;1.30;99.90;;;;;;5035704;28;20185;-49
2023/01/26 12:39:17;;;;;;;20.20;9.23;;;1.30;99.90;;;;;;5035302;28;20248;-48
2023/01/26 12:42:14;;;;;;;20.07;9.60;;;1.40;99.90;;;;;;5035527;28;20270;-48
2023/01/26 12:44:45;;;;;;;20.60;9.93;;;1.30;99.90;;;;;;5035541;28;20165;-51
2023/01/26 12:47:20;;;;;;;18.93;9.63;;;1.40;99.90;;;;;;5035207;28;20153;-50
2023/01/26 12:50:11;;;;;;;19.63;10.80;;;1.40;99.90;;;;;;5035411;28;20167;-49
2023/01/26 12:52:42;;;;;;;17.93;9.70;;;1.40;99.90;;;;;;5034878;28;20203;-50
2023/01/26 12:55:24;;;;;;;20.97;9.03;;;1.50;99.90;;;;;;5035308;28;20189;-49
2023/01/26 12:58:07;;;;;;;19.13;9.50;;;1.50;99.90;;;;;;5017711;28;20219;-49
2023/01/26 13:00:37;;;;;;;19.77;10.17;;;1.50;99.90;;;;;;5035090;28;20614;-49
2023/01/26 13:03:17;;;;;;;17.07;8.73;;;1.60;99.90;;;;;;5035819;28;20278;-49
2023/01/26 13:06:09;;;;;;;15.07;8.23;;;1.50;99.90;;;;;;5035155;28;20181;-49
2023/01/26 13:08:34;;;;;;;16.90;8.17;;;1.50;99.90;;;;;;4994534;28;20198;-51
2023/01/26 13:11:07;;;;;;;14.30;7.33;;;1.50;99.90;;;;;;5034609;28;20271;-48
2023/01/26 13:13:50;;;;;;;15.57;7.77;;;1.60;99.90;;;;;;5016734;28;20204;-49
2023/01/26 13:16:16;;;;;;;16.77;7.73;;;1.60;99.90;;;;;;5035066;28;20177;-49
2023/01/26 13:18:52;;;;;;;12.47;7.60;;;1.60;99.90;;;;;;5034537;28;20191;-48
2023/01/26 13:21:47;;;;;;;12.70;6.83;;;1.60;99.90;;;;;;5016818;28;20208;-50
2023/01/26 13:24:16;;;;;;;12.70;6.70;;;1.70;99.90;;;;;;5033701;28;20220;-50
2023/01/26 13:26:49;;;;;;;14.33;6.83;;;1.70;99.90;;;;;;5034618;28;20188;-50
2023/01/26 13:29:24;;;;;;;12.80;4.97;;;1.70;99.90;;;;;;5017209;28;20175;-49
2023/01/26 13:31:56;;;;;;;9.83;5.43;;;1.70;99.90;;;;;;5034652;28;20257;-50